createdAt,value
2023-02-13T00:00:25.852Z,102886.00
2023-02-13T00:02:53.286Z,102882.09
2023-02-13T00:05:20.648Z,102884.66
2023-02-13T00:07:48.064Z,102886.50
2023-02-13T00:10:15.530Z,102888.03
2023-02-13T00:12:42.897Z,102879.16
2023-02-13T00:15:10.688Z,102878.50
2023-02-13T00:17:38.116Z,102885.28
2023-02-13T00:20:06.552Z,102889.66
2023-02-13T00:22:38.186Z,102889.44
2023-02-13T00:25:06.364Z,102886.72
2023-02-13T00:27:34.154Z,102888.50
2023-02-13T00:30:03.846Z,102884.41
2023-02-13T00:32:32.136Z,102894.25
2023-02-13T00:35:18.422Z,102889.09
2023-02-13T00:37:45.767Z,102880.94
2023-02-13T00:40:13.498Z,102898.44
2023-02-13T00:42:40.854Z,102892.22
2023-02-13T00:45:08.730Z,102898.16
2023-02-13T00:47:36.312Z,102900.84
2023-02-13T00:50:03.860Z,102905.91
2023-02-13T00:52:31.340Z,102905.09
2023-02-13T00:54:58.738Z,102911.31
2023-02-13T00:57:26.110Z,102905.09
2023-02-13T00:59:53.476Z,102898.28
2023-02-13T01:02:20.877Z,102903.38
2023-02-13T01:04:48.291Z,102905.13
2023-02-13T01:07:16.727Z,102907.97
2023-02-13T01:09:44.947Z,102910.59
2023-02-13T01:12:12.305Z,102914.88
2023-02-13T01:14:39.622Z,102902.44
2023-02-13T01:17:06.941Z,102913.88
2023-02-13T01:19:34.285Z,102914.84
2023-02-13T01:22:01.669Z,102908.66
2023-02-13T01:24:30.125Z,102910.22
2023-02-13T01:26:59.048Z,102904.69
2023-02-13T01:29:26.435Z,102911.91
2023-02-13T01:31:53.873Z,102915.34
2023-02-13T01:34:21.282Z,102914.31
2023-02-13T01:36:48.667Z,102915.88
2023-02-13T01:39:16.044Z,102899.81
2023-02-13T01:41:44.476Z,102909.28
2023-02-13T01:44:49.518Z,102918.31
2023-02-13T01:47:24.574Z,102901.47
2023-02-13T01:50:02.777Z,102893.69
2023-02-13T01:52:30.915Z,102903.38
2023-02-13T01:54:58.473Z,102902.59
2023-02-13T01:57:31.124Z,102901.19
2023-02-13T02:00:17.590Z,102900.03
2023-02-13T02:02:51.361Z,102898.97
2023-02-13T02:05:24.549Z,102892.88
2023-02-13T02:07:54.715Z,102898.91
2023-02-13T02:10:24.106Z,102908.38
2023-02-13T02:13:14.725Z,102901.00
2023-02-13T02:15:43.165Z,102897.78
2023-02-13T02:18:37.127Z,102886.59
2023-02-13T02:21:21.024Z,102888.75
2023-02-13T02:24:09.884Z,102897.00
2023-02-13T02:26:46.487Z,102895.31
2023-02-13T02:29:59.491Z,102887.94
2023-02-13T02:32:39.004Z,102889.53
2023-02-13T02:35:45.753Z,102890.06
2023-02-13T02:38:33.169Z,102889.88
2023-02-13T02:41:08.391Z,102876.63
2023-02-13T02:43:40.597Z,102889.22
2023-02-13T02:46:31.395Z,102874.38
2023-02-13T02:49:28.205Z,102881.47
2023-02-13T02:52:07.003Z,102870.78
2023-02-13T02:55:06.726Z,102876.13
2023-02-13T02:58:05.308Z,102880.63
2023-02-13T03:00:56.049Z,102874.94
2023-02-13T03:03:44.799Z,102872.34
2023-02-13T03:06:20.526Z,102869.28
2023-02-13T03:09:12.991Z,102869.34
2023-02-13T03:12:03.233Z,102879.75
2023-02-13T03:14:30.594Z,102872.28
2023-02-13T03:17:17.265Z,102880.06
2023-02-13T03:20:16.362Z,102869.13
2023-02-13T03:23:14.314Z,102874.28
2023-02-13T03:26:01.016Z,102879.47
2023-02-13T03:29:02.210Z,102878.25
2023-02-13T03:31:38.785Z,102875.75
2023-02-13T03:34:13.314Z,102885.72
2023-02-13T03:37:18.578Z,102881.38
2023-02-13T03:40:05.650Z,102876.75
2023-02-13T03:42:44.009Z,102869.28
2023-02-13T03:45:37.856Z,102879.84
2023-02-13T03:48:31.695Z,102880.19
2023-02-13T03:51:04.076Z,102882.75
2023-02-13T03:53:35.640Z,102882.69
2023-02-13T03:56:22.112Z,102875.50
2023-02-13T03:59:12.531Z,102882.31
2023-02-13T04:01:40.904Z,102874.78
2023-02-13T04:04:09.960Z,102884.00
2023-02-13T04:06:52.067Z,102887.69
2023-02-13T04:09:20.101Z,102887.66
2023-02-13T04:12:00.319Z,102892.97
2023-02-13T04:14:40.799Z,102890.38
2023-02-13T04:17:17.750Z,102885.09
2023-02-13T04:19:45.286Z,102890.00
2023-02-13T04:22:13.188Z,102889.84
2023-02-13T04:24:40.687Z,102871.66
2023-02-13T04:27:08.420Z,102891.13
2023-02-13T04:29:35.792Z,102874.59
2023-02-13T04:32:03.360Z,102892.31
2023-02-13T04:34:30.756Z,102890.59
2023-02-13T04:36:58.125Z,102889.38
2023-02-13T04:39:25.414Z,102890.06
2023-02-13T04:41:52.756Z,102894.72
2023-02-13T04:44:20.104Z,102894.31
2023-02-13T04:46:47.502Z,102888.75
2023-02-13T04:49:14.864Z,102896.19
2023-02-13T04:51:42.341Z,102888.50
2023-02-13T04:54:11.029Z,102891.13
2023-02-13T04:56:38.367Z,102887.25
2023-02-13T04:59:05.727Z,102884.69
2023-02-13T05:01:33.102Z,102891.13
2023-02-13T05:04:00.484Z,102897.41
2023-02-13T05:06:27.811Z,102897.44
2023-02-13T05:08:55.160Z,102894.63
2023-02-13T05:11:22.566Z,102899.81
2023-02-13T05:13:49.880Z,102900.94
2023-02-13T05:16:17.235Z,102895.03
2023-02-13T05:18:44.601Z,102902.22
2023-02-13T05:21:30.537Z,102901.56
2023-02-13T05:23:57.927Z,102897.72
2023-02-13T05:26:25.319Z,102900.88
2023-02-13T05:29:11.337Z,102905.25
2023-02-13T05:31:38.800Z,102894.94
2023-02-13T05:34:06.237Z,102909.75
2023-02-13T05:36:33.604Z,102896.66
2023-02-13T05:39:00.994Z,102899.44
2023-02-13T05:41:28.393Z,102898.72
2023-02-13T05:43:55.721Z,102898.88
2023-02-13T05:46:23.195Z,102898.06
2023-02-13T05:48:51.776Z,102904.38
2023-02-13T05:51:20.152Z,102913.44
2023-02-13T05:53:47.600Z,102918.72
2023-02-13T05:56:15.008Z,102930.44
2023-02-13T05:58:42.354Z,102913.28
2023-02-13T06:01:09.754Z,102933.16
2023-02-13T06:03:37.316Z,102933.47
2023-02-13T06:06:05.064Z,102938.81
2023-02-13T06:08:32.459Z,102942.28
2023-02-13T06:11:00.089Z,102933.81
2023-02-13T06:13:27.718Z,102940.78
2023-02-13T06:15:55.367Z,102949.53
2023-02-13T06:18:23.195Z,102952.44
2023-02-13T06:20:50.617Z,102961.34
2023-02-13T06:23:18.154Z,102956.06
2023-02-13T06:25:45.536Z,102966.44
2023-02-13T06:28:13.031Z,102959.75
2023-02-13T06:30:40.435Z,102974.44
2023-02-13T06:33:13.608Z,102962.81
2023-02-13T06:35:41.093Z,102967.47
2023-02-13T06:38:08.481Z,102970.38
2023-02-13T06:40:35.853Z,102963.41
2023-02-13T06:43:03.310Z,102968.78
2023-02-13T06:45:30.722Z,102961.81
2023-02-13T06:47:58.077Z,102945.03
2023-02-13T06:50:25.444Z,102965.84
2023-02-13T06:52:52.859Z,102972.13
2023-02-13T06:55:21.024Z,102977.78
2023-02-13T06:57:48.500Z,102967.09
2023-02-13T07:00:17.971Z,102980.06
2023-02-13T07:02:47.114Z,102985.75
2023-02-13T07:05:15.220Z,102980.69
2023-02-13T07:07:43.342Z,102971.41
2023-02-13T07:10:13.713Z,102979.88
2023-02-13T07:12:41.332Z,102978.88
2023-02-13T07:15:09.063Z,102995.69
2023-02-13T07:17:36.561Z,102975.53
2023-02-13T07:20:05.271Z,102970.22
2023-02-13T07:22:33.381Z,102983.59
2023-02-13T07:25:01.748Z,102995.53
2023-02-13T07:27:29.538Z,102992.16
2023-02-13T07:29:57.712Z,102998.41
2023-02-13T07:32:25.834Z,102984.91
2023-02-13T07:35:01.747Z,102994.28
2023-02-13T07:37:31.286Z,102994.38
2023-02-13T07:39:58.642Z,102993.09
2023-02-13T07:42:25.978Z,103001.25
2023-02-13T07:44:53.330Z,102990.72
2023-02-13T07:47:20.651Z,102998.19
2023-02-13T07:49:47.926Z,102986.00
2023-02-13T07:52:15.259Z,102982.19
2023-02-13T07:54:47.701Z,102980.75
2023-02-13T07:57:16.768Z,102981.91
2023-02-13T07:59:44.151Z,102980.19
2023-02-13T08:02:13.368Z,102978.81
2023-02-13T08:04:41.202Z,102966.13
2023-02-13T08:07:08.586Z,102974.13
2023-02-13T08:09:54.479Z,102982.28
2023-02-13T08:12:22.325Z,102972.97
2023-02-13T08:14:49.607Z,102973.31
2023-02-13T08:17:16.878Z,102979.63
2023-02-13T08:19:44.457Z,102978.28
2023-02-13T08:22:11.892Z,102970.56
2023-02-13T08:24:39.200Z,102967.31
2023-02-13T08:27:06.491Z,102966.13
2023-02-13T08:29:34.623Z,102960.56
2023-02-13T08:32:01.965Z,102951.78
2023-02-13T08:34:29.374Z,102948.69
2023-02-13T08:36:56.816Z,102942.75
2023-02-13T08:39:24.396Z,102940.38
2023-02-13T08:41:51.828Z,102944.88
2023-02-13T08:44:19.321Z,102956.28
2023-02-13T08:46:46.682Z,102941.22
2023-02-13T08:49:14.037Z,102948.44
2023-02-13T08:51:41.455Z,102950.13
2023-02-13T08:54:08.865Z,102950.22
2023-02-13T08:56:36.257Z,102951.13
2023-02-13T08:59:03.733Z,102951.94
2023-02-13T09:01:31.139Z,102942.22
2023-02-13T09:03:58.653Z,102949.34
2023-02-13T09:06:27.661Z,102954.53
2023-02-13T09:08:55.230Z,102936.25
2023-02-13T09:11:23.574Z,102931.03
2023-02-13T09:13:54.614Z,102942.97
2023-02-13T09:16:22.549Z,102935.06
2023-02-13T09:18:51.205Z,102940.78
2023-02-13T09:21:21.076Z,102940.38
2023-02-13T09:23:48.616Z,102939.16
2023-02-13T09:26:18.173Z,102945.88
2023-02-13T09:28:47.144Z,102934.41
2023-02-13T09:31:20.160Z,102952.88
2023-02-13T09:33:48.800Z,102950.47
2023-02-13T09:36:20.366Z,102936.84
2023-02-13T09:38:51.702Z,102945.78
2023-02-13T09:41:31.295Z,102951.28
2023-02-13T09:44:03.092Z,102942.50
2023-02-13T09:46:38.539Z,102944.47
2023-02-13T09:49:12.518Z,102946.91
2023-02-13T09:51:42.840Z,102942.56
2023-02-13T09:54:16.451Z,102953.25
2023-02-13T09:57:05.409Z,102941.69
2023-02-13T09:59:51.212Z,102948.72
2023-02-13T10:02:37.113Z,102941.78
2023-02-13T10:05:17.436Z,102938.28
2023-02-13T10:07:58.235Z,102945.47
2023-02-13T10:10:50.676Z,102942.75
2023-02-13T10:13:37.459Z,102928.81
2023-02-13T10:16:22.155Z,102934.44
2023-02-13T10:18:57.670Z,102936.25
2023-02-13T10:21:31.365Z,102935.34
2023-02-13T10:24:05.002Z,102928.03
2023-02-13T10:26:48.294Z,102940.47
2023-02-13T10:29:48.244Z,102923.75
2023-02-13T10:32:19.250Z,102923.78
2023-02-13T10:34:48.021Z,102907.03
2023-02-13T10:37:21.826Z,102920.63
2023-02-13T10:39:51.710Z,102912.75
2023-02-13T10:42:23.925Z,102904.75
2023-02-13T10:45:18.623Z,102905.66
2023-02-13T10:47:52.012Z,102902.16
2023-02-13T10:50:43.823Z,102896.78
2023-02-13T10:53:31.737Z,102889.72
2023-02-13T10:56:01.861Z,102894.19
2023-02-13T10:58:50.236Z,102895.13
2023-02-13T11:01:34.780Z,102891.41
2023-02-13T11:04:07.039Z,102895.00
2023-02-13T11:06:42.545Z,102880.75
2023-02-13T11:09:10.267Z,102882.56
2023-02-13T11:11:40.376Z,102875.66
2023-02-13T11:14:21.241Z,102877.50
2023-02-13T11:16:57.000Z,102881.22
2023-02-13T11:19:35.438Z,102879.38
2023-02-13T11:22:13.667Z,102869.50
2023-02-13T11:24:51.924Z,102873.94
2023-02-13T11:27:25.801Z,102866.91
2023-02-13T11:29:56.984Z,102868.72
2023-02-13T11:32:26.562Z,102867.78
2023-02-13T11:34:57.230Z,102856.34
2023-02-13T11:37:28.153Z,102854.50
2023-02-13T11:40:08.330Z,102865.19
2023-02-13T11:42:37.173Z,102847.34
2023-02-13T11:45:22.178Z,102835.84
2023-02-13T11:47:49.898Z,102843.84
2023-02-13T11:50:22.897Z,102851.06
2023-02-13T11:53:04.644Z,102840.41
2023-02-13T11:55:34.000Z,102841.38
2023-02-13T11:58:13.612Z,102839.59
2023-02-13T12:00:42.405Z,102842.28
2023-02-13T12:03:22.169Z,102828.88
2023-02-13T12:06:22.145Z,102831.53
2023-02-13T12:08:50.728Z,102839.56
2023-02-13T12:11:20.888Z,102833.34
2023-02-13T12:13:49.137Z,102815.56
2023-02-13T12:16:40.151Z,102828.06
2023-02-13T12:19:20.303Z,102815.63
2023-02-13T12:22:07.690Z,102818.28
2023-02-13T12:24:57.004Z,102807.56
2023-02-13T12:27:47.122Z,102815.56
2023-02-13T12:30:42.318Z,102808.50
2023-02-13T12:33:32.889Z,102796.00
2023-02-13T12:36:12.111Z,102796.91
2023-02-13T12:38:54.357Z,102790.72
2023-02-13T12:41:44.256Z,102784.47
2023-02-13T12:44:25.446Z,102787.13
2023-02-13T12:47:13.022Z,102788.88
2023-02-13T12:49:52.467Z,102782.69
2023-02-13T12:52:40.632Z,102777.38
2023-02-13T12:55:36.048Z,102780.03
2023-02-13T12:58:15.271Z,102776.50
2023-02-13T13:00:55.097Z,102764.91
2023-02-13T13:03:56.712Z,102776.47
2023-02-13T13:07:01.117Z,102762.25
2023-02-13T13:09:37.879Z,102765.78
2023-02-13T13:12:11.459Z,102760.47
2023-02-13T13:14:52.895Z,102758.69
2023-02-13T13:17:44.706Z,102755.13
2023-02-13T13:20:31.078Z,102749.78
2023-02-13T13:23:11.449Z,102743.56
2023-02-13T13:25:47.031Z,102744.44
2023-02-13T13:28:28.951Z,102749.75
2023-02-13T13:30:58.041Z,102750.66
2023-02-13T13:33:28.364Z,102748.88
2023-02-13T13:36:16.423Z,102746.28
2023-02-13T13:39:06.175Z,102746.22
2023-02-13T13:42:15.216Z,102747.13
2023-02-13T13:44:45.374Z,102742.66
2023-02-13T13:47:26.504Z,102742.66
2023-02-13T13:49:59.688Z,102753.31
2023-02-13T13:52:40.195Z,102742.66
2023-02-13T13:55:46.080Z,102737.31
2023-02-13T13:58:31.481Z,102735.56
2023-02-13T14:01:18.997Z,102735.53
2023-02-13T14:03:48.971Z,102731.09
2023-02-13T14:06:22.149Z,102738.19
2023-02-13T14:08:49.663Z,102733.75
2023-02-13T14:11:31.251Z,102723.97
2023-02-13T14:13:59.389Z,102726.63
2023-02-13T14:16:44.708Z,102722.19
2023-02-13T14:19:39.778Z,102712.38
2023-02-13T14:22:19.047Z,102716.84
2023-02-13T14:24:54.070Z,102706.16
2023-02-13T14:27:24.571Z,102712.41
2023-02-13T14:29:52.120Z,102716.00
2023-02-13T14:32:34.062Z,102715.97
2023-02-13T14:35:06.164Z,102715.97
2023-02-13T14:37:47.387Z,102699.94
2023-02-13T14:40:17.594Z,102708.84
2023-02-13T14:42:48.746Z,102714.16
2023-02-13T14:45:23.977Z,102708.84
2023-02-13T14:47:57.429Z,102704.41
2023-02-13T14:50:32.532Z,102707.06
2023-02-13T14:53:04.008Z,102714.19
2023-02-13T14:55:39.865Z,102706.19
2023-02-13T14:58:12.471Z,102699.03
2023-02-13T15:00:57.316Z,102701.72
2023-02-13T15:03:31.048Z,102707.06
2023-02-13T15:06:03.637Z,102701.72
2023-02-13T15:08:46.152Z,102704.41
2023-02-13T15:11:35.889Z,102694.59
2023-02-13T15:14:19.892Z,102704.41
2023-02-13T15:17:02.039Z,102697.25
2023-02-13T15:19:30.058Z,102688.34
2023-02-13T15:22:03.187Z,102704.38
2023-02-13T15:24:37.984Z,102698.16
2023-02-13T15:27:07.371Z,102691.06
2023-02-13T15:29:47.920Z,102690.16
2023-02-13T15:32:26.064Z,102686.59
2023-02-13T15:34:53.564Z,102691.03
2023-02-13T15:37:39.561Z,102683.94
2023-02-13T15:40:21.899Z,102690.16
2023-02-13T15:42:49.330Z,102693.72
2023-02-13T15:45:18.792Z,102699.03
2023-02-13T15:47:47.095Z,102694.59
2023-02-13T15:50:35.325Z,102690.16
2023-02-13T15:53:05.460Z,102688.34
2023-02-13T15:55:36.250Z,102683.94
2023-02-13T15:58:04.334Z,102695.47
2023-02-13T16:00:39.406Z,102689.22
2023-02-13T16:03:13.980Z,102685.69
2023-02-13T16:05:41.845Z,102702.56
2023-02-13T16:08:30.000Z,102698.06
2023-02-13T16:11:20.962Z,102699.84
2023-02-13T16:14:16.269Z,102695.38
2023-02-13T16:16:48.736Z,102693.59
2023-02-13T16:19:34.373Z,102698.03
2023-02-13T16:22:38.539Z,102684.69
2023-02-13T16:25:20.772Z,102705.13
2023-02-13T16:28:04.208Z,102701.53
2023-02-13T16:30:41.166Z,102697.94
2023-02-13T16:33:14.596Z,102708.59
2023-02-13T16:35:49.101Z,102705.00
2023-02-13T16:38:33.645Z,102713.00
2023-02-13T16:41:02.384Z,102702.28
2023-02-13T16:43:57.056Z,102706.72
2023-02-13T16:46:33.405Z,102711.16
2023-02-13T16:49:06.807Z,102710.13
2023-02-13T16:51:57.550Z,102710.06
2023-02-13T16:54:44.630Z,102722.44
2023-02-13T16:57:14.741Z,102733.91
2023-02-13T16:59:48.178Z,102722.28
2023-02-13T17:02:25.813Z,102722.19
2023-02-13T17:05:05.933Z,102731.13
2023-02-13T17:07:39.050Z,102730.25
2023-02-13T17:10:17.976Z,102737.28
2023-02-13T17:12:46.176Z,102728.34
2023-02-13T17:15:16.545Z,102728.34
2023-02-13T17:17:44.221Z,102734.50
2023-02-13T17:20:24.150Z,102727.34
2023-02-13T17:22:54.398Z,102724.59
2023-02-13T17:25:23.302Z,102736.09
2023-02-13T17:27:53.109Z,102745.84
2023-02-13T17:30:23.511Z,102743.13
2023-02-13T17:32:58.332Z,102744.78
2023-02-13T17:35:25.790Z,102734.03
2023-02-13T17:37:53.224Z,102750.91
2023-02-13T17:40:22.993Z,102739.38
2023-02-13T17:42:52.999Z,102755.28
2023-02-13T17:45:23.613Z,102756.09
2023-02-13T17:47:51.388Z,102744.56
2023-02-13T17:50:19.320Z,102756.97
2023-02-13T17:52:49.100Z,102755.09
2023-02-13T17:55:21.240Z,102751.59
2023-02-13T17:57:49.925Z,102756.84
2023-02-13T18:00:20.279Z,102760.41
2023-02-13T18:02:49.257Z,102753.22
2023-02-13T18:05:18.328Z,102755.94
2023-02-13T18:07:46.728Z,102755.97
2023-02-13T18:10:18.377Z,102747.78
2023-02-13T18:12:46.000Z,102762.69
2023-02-13T18:15:13.847Z,102749.16
2023-02-13T18:17:41.739Z,102762.56
2023-02-13T18:20:14.669Z,102758.22
2023-02-13T18:22:42.513Z,102758.97
2023-02-13T18:25:10.782Z,102752.81
2023-02-13T18:27:38.194Z,102755.50
2023-02-13T18:30:06.870Z,102767.13
2023-02-13T18:32:34.289Z,102752.78
2023-02-13T18:35:02.619Z,102750.78
2023-02-13T18:37:30.141Z,102750.78
2023-02-13T18:39:57.606Z,102757.09
2023-02-13T18:42:44.441Z,102751.75
2023-02-13T18:45:12.222Z,102749.06
2023-02-13T18:47:39.655Z,102769.97
2023-02-13T18:50:08.239Z,102766.44
2023-02-13T18:52:35.818Z,102757.56
2023-02-13T18:55:06.346Z,102766.16
2023-02-13T18:57:33.816Z,102775.97
2023-02-13T19:00:01.192Z,102783.88
2023-02-13T19:02:28.580Z,102770.28
2023-02-13T19:04:55.986Z,102785.34
2023-02-13T19:07:23.390Z,102764.88
2023-02-13T19:09:50.792Z,102762.19
2023-02-13T19:12:18.175Z,102775.25
2023-02-13T19:14:45.570Z,102769.84
2023-02-13T19:17:12.935Z,102779.88
2023-02-13T19:19:40.296Z,102773.63
2023-02-13T19:22:07.668Z,102770.72
2023-02-13T19:24:35.009Z,102769.66
2023-02-13T19:27:02.490Z,102777.78
2023-02-13T19:29:29.884Z,102770.72
2023-02-13T19:31:57.197Z,102764.41
2023-02-13T19:34:24.603Z,102767.19
2023-02-13T19:36:51.989Z,102771.47
2023-02-13T19:39:19.468Z,102772.94
2023-02-13T19:41:46.819Z,102792.16
2023-02-13T19:44:14.381Z,102788.28
2023-02-13T19:46:41.947Z,102784.66
2023-02-13T19:49:10.074Z,102800.56
2023-02-13T19:51:37.475Z,102793.41
2023-02-13T19:54:07.096Z,102794.09
2023-02-13T19:56:37.086Z,102799.25
2023-02-13T19:59:06.879Z,102804.56
2023-02-13T20:01:34.503Z,102806.28
2023-02-13T20:04:02.198Z,102806.28
2023-02-13T20:06:35.983Z,102810.72
2023-02-13T20:09:11.989Z,102806.25
2023-02-13T20:11:40.874Z,102813.13
2023-02-13T20:14:14.386Z,102802.41
2023-02-13T20:16:43.014Z,102804.75
2023-02-13T20:19:12.205Z,102809.09
2023-02-13T20:21:41.632Z,102813.44
2023-02-13T20:24:10.862Z,102817.16
2023-02-13T20:26:39.456Z,102828.53
2023-02-13T20:29:07.065Z,102822.13
2023-02-13T20:31:35.496Z,102815.75
2023-02-13T20:34:06.383Z,102820.38
2023-02-13T20:36:33.984Z,102814.94
2023-02-13T20:39:04.039Z,102811.31
2023-02-13T20:41:33.772Z,102823.97
2023-02-13T20:44:06.901Z,102829.28
2023-02-13T20:46:37.266Z,102817.03
2023-02-13T20:49:08.303Z,102831.91
2023-02-13T20:51:38.601Z,102833.66
2023-02-13T20:54:06.397Z,102833.69
2023-02-13T20:56:33.806Z,102828.94
2023-02-13T20:59:02.592Z,102834.75
2023-02-13T21:01:33.126Z,102823.03
2023-02-13T21:04:01.289Z,102831.25
2023-02-13T21:06:31.886Z,102828.09
2023-02-13T21:09:00.077Z,102823.59
2023-02-13T21:11:29.426Z,102824.91
2023-02-13T21:13:58.315Z,102806.94
2023-02-13T21:16:28.320Z,102808.75
2023-02-13T21:18:58.636Z,102804.00
2023-02-13T21:21:29.130Z,102815.47
2023-02-13T21:23:59.282Z,102811.09
2023-02-13T21:26:27.872Z,102807.28
2023-02-13T21:28:55.631Z,102798.06
2023-02-13T21:31:35.329Z,102808.03
2023-02-13T21:34:06.225Z,102797.25
2023-02-13T21:36:37.336Z,102811.06
2023-02-13T21:39:07.311Z,102799.06
2023-02-13T21:41:34.993Z,102810.38
2023-02-13T21:44:02.905Z,102803.34
2023-02-13T21:46:31.983Z,102805.13
2023-02-13T21:49:04.555Z,102808.00
2023-02-13T21:51:35.385Z,102799.03
2023-02-13T21:54:04.003Z,102793.53
2023-02-13T21:56:36.399Z,102791.59
2023-02-13T21:59:05.460Z,102798.66
2023-02-13T22:01:54.654Z,102792.44
2023-02-13T22:04:22.854Z,102790.91
2023-02-13T22:06:52.154Z,102782.31
2023-02-13T22:09:21.389Z,102788.41
2023-02-13T22:11:51.446Z,102795.38
2023-02-13T22:14:19.576Z,102789.13
2023-02-13T22:16:50.848Z,102791.06
2023-02-13T22:19:18.439Z,102793.38
2023-02-13T22:21:46.227Z,102792.09
2023-02-13T22:24:13.771Z,102781.31
2023-02-13T22:26:45.193Z,102787.09
2023-02-13T22:29:14.672Z,102787.28
2023-02-13T22:31:43.531Z,102773.09
2023-02-13T22:34:13.425Z,102779.03
2023-02-13T22:36:41.451Z,102778.41
2023-02-13T22:39:10.416Z,102755.75
2023-02-13T22:41:37.800Z,102766.59
2023-02-13T22:44:05.320Z,102760.41
2023-02-13T22:46:34.037Z,102766.63
2023-02-13T22:49:02.019Z,102768.41
2023-02-13T22:51:34.877Z,102774.44
2023-02-13T22:54:03.241Z,102774.41
2023-02-13T22:56:31.258Z,102770.91
2023-02-13T22:58:59.929Z,102775.19
2023-02-13T23:01:29.024Z,102761.19
2023-02-13T23:03:57.343Z,102756.69
2023-02-13T23:06:25.588Z,102759.25
2023-02-13T23:08:53.769Z,102768.94
2023-02-13T23:11:45.750Z,102757.47
2023-02-13T23:14:13.351Z,102759.22
2023-02-13T23:17:00.226Z,102754.63
2023-02-13T23:19:29.744Z,102737.09
2023-02-13T23:21:57.796Z,102746.00
2023-02-13T23:24:25.419Z,102751.28
2023-02-13T23:26:52.730Z,102754.78
2023-02-13T23:29:20.643Z,102761.88
2023-02-13T23:31:48.066Z,102762.72
2023-02-13T23:34:15.595Z,102764.19
2023-02-13T23:36:42.995Z,102760.53
2023-02-13T23:39:10.503Z,102741.28
2023-02-13T23:41:37.859Z,102740.25
2023-02-13T23:44:05.248Z,102741.41
2023-02-13T23:46:32.718Z,102742.44
2023-02-13T23:49:00.659Z,102744.91
2023-02-13T23:51:28.018Z,102735.69
2023-02-13T23:53:57.308Z,102725.97
2023-02-13T23:56:25.529Z,102741.81
2023-02-13T23:58:55.704Z,102740.22
